sensor_id;sensor_type;location;lat;lon;timestamp;pressure;altitude;pressure_sealevel;temperature;humidity
27425;BME280;15244;49.088;11.886;2022-10-17T00:01:54;96463.34;;;19.53;55.53
27425;BME280;15244;49.088;11.886;2022-10-17T00:06:56;96472.44;;;19.49;55.56
27425;BME280;15244;49.088;11.886;2022-10-17T00:11:57;96467.00;;;19.46;55.54
27425;BME280;15244;49.088;11.886;2022-10-17T00:17:00;96468.63;;;19.43;55.46
27425;BME280;15244;49.088;11.886;2022-10-17T00:22:02;96481.31;;;19.41;55.42
27425;BME280;15244;49.088;11.886;2022-10-17T00:27:04;96486.13;;;19.37;55.72
27425;BME280;15244;49.088;11.886;2022-10-17T00:32:05;96493.28;;;19.34;55.78
27425;BME280;15244;49.088;11.886;2022-10-17T00:37:07;96496.13;;;19.31;55.42
27425;BME280;15244;49.088;11.886;2022-10-17T00:42:11;96498.97;;;19.27;55.65
27425;BME280;15244;49.088;11.886;2022-10-17T00:47:16;96495.47;;;19.23;55.51
27425;BME280;15244;49.088;11.886;2022-10-17T00:52:21;96502.25;;;19.18;55.59
27425;BME280;15244;49.088;11.886;2022-10-17T00:57:26;96496.03;;;19.14;55.36
27425;BME280;15244;49.088;11.886;2022-10-17T01:02:29;96499.59;;;19.11;55.62
27425;BME280;15244;49.088;11.886;2022-10-17T01:07:32;96498.13;;;19.07;55.63
27425;BME280;15244;49.088;11.886;2022-10-17T01:13:11;96506.47;;;19.03;55.57
27425;BME280;15244;49.088;11.886;2022-10-17T01:18:31;96513.25;;;18.98;55.70
27425;BME280;15244;49.088;11.886;2022-10-17T01:29:46;96498.06;;;18.87;55.63
27425;BME280;15244;49.088;11.886;2022-10-17T01:34:59;96486.25;;;18.82;55.85
27425;BME280;15244;49.088;11.886;2022-10-17T01:40:08;96489.09;;;18.79;55.82
27425;BME280;15244;49.088;11.886;2022-10-17T01:45:15;96491.09;;;18.75;55.82
27425;BME280;15244;49.088;11.886;2022-10-17T01:50:24;96483.66;;;18.72;55.88
27425;BME280;15244;49.088;11.886;2022-10-17T01:55:34;96490.00;;;18.69;55.95
27425;BME280;15244;49.088;11.886;2022-10-17T02:00:41;96499.47;;;18.68;55.92
27425;BME280;15244;49.088;11.886;2022-10-17T02:05:44;96482.97;;;18.64;56.14
27425;BME280;15244;49.088;11.886;2022-10-17T02:10:56;96483.38;;;18.62;56.21
27425;BME280;15244;49.088;11.886;2022-10-17T02:21:30;96487.03;;;18.56;56.17
27425;BME280;15244;49.088;11.886;2022-10-17T02:32:16;96491.47;;;18.50;56.15
27425;BME280;15244;49.088;11.886;2022-10-17T02:37:27;96497.41;;;18.48;56.33
27425;BME280;15244;49.088;11.886;2022-10-17T02:42:31;96490.72;;;18.46;56.34
27425;BME280;15244;49.088;11.886;2022-10-17T02:52:51;96491.56;;;18.42;56.56
27425;BME280;15244;49.088;11.886;2022-10-17T02:57:59;96487.25;;;18.41;56.54
27425;BME280;15244;49.088;11.886;2022-10-17T03:03:19;96491.19;;;18.40;56.54
27425;BME280;15244;49.088;11.886;2022-10-17T03:08:22;96486.50;;;18.37;56.72
27425;BME280;15244;49.088;11.886;2022-10-17T03:13:24;96486.56;;;18.34;56.53
27425;BME280;15244;49.088;11.886;2022-10-17T03:18:26;96492.50;;;18.32;56.67
27425;BME280;15244;49.088;11.886;2022-10-17T03:23:33;96494.88;;;18.30;56.66
27425;BME280;15244;49.088;11.886;2022-10-17T03:28:39;96492.56;;;18.29;56.66
27425;BME280;15244;49.088;11.886;2022-10-17T03:33:41;96500.88;;;18.25;56.64
27425;BME280;15244;49.088;11.886;2022-10-17T03:38:44;96505.69;;;18.21;56.56
27425;BME280;15244;49.088;11.886;2022-10-17T03:43:47;96507.69;;;18.17;56.33
27425;BME280;15244;49.088;11.886;2022-10-17T03:48:49;96519.97;;;18.12;56.30
27425;BME280;15244;49.088;11.886;2022-10-17T03:53:51;96513.72;;;18.08;56.42
27425;BME280;15244;49.088;11.886;2022-10-17T03:58:54;96514.53;;;18.05;56.39
27425;BME280;15244;49.088;11.886;2022-10-17T04:03:57;96526.78;;;18.04;56.72
27425;BME280;15244;49.088;11.886;2022-10-17T04:09:05;96529.94;;;18.03;56.87
27425;BME280;15244;49.088;11.886;2022-10-17T04:14:17;96533.53;;;18.00;57.07
27425;BME280;15244;49.088;11.886;2022-10-17T04:19:19;96534.72;;;17.98;57.17
27425;BME280;15244;49.088;11.886;2022-10-17T04:24:21;96542.63;;;17.96;57.11
27425;BME280;15244;49.088;11.886;2022-10-17T04:29:52;96537.94;;;17.93;56.99
27425;BME280;15244;49.088;11.886;2022-10-17T04:34:57;96537.16;;;17.93;56.92
27425;BME280;15244;49.088;11.886;2022-10-17T04:40:01;96533.25;;;17.90;57.39
27425;BME280;15244;49.088;11.886;2022-10-17T04:45:06;96543.91;;;17.88;56.80
27425;BME280;15244;49.088;11.886;2022-10-17T04:50:09;96537.25;;;17.86;56.43
27425;BME280;15244;49.088;11.886;2022-10-17T04:55:13;96537.66;;;17.84;57.09
27425;BME280;15244;49.088;11.886;2022-10-17T05:00:17;96544.38;;;17.83;57.22
27425;BME280;15244;49.088;11.886;2022-10-17T05:05:26;96537.69;;;17.81;57.25
27425;BME280;15244;49.088;11.886;2022-10-17T05:10:29;96540.81;;;17.79;57.17
27425;BME280;15244;49.088;11.886;2022-10-17T05:15:32;96544.00;;;17.77;57.10
27425;BME280;15244;49.088;11.886;2022-10-17T05:20:35;96553.47;;;17.76;57.38
27425;BME280;15244;49.088;11.886;2022-10-17T05:25:37;96554.66;;;17.75;57.41
27425;BME280;15244;49.088;11.886;2022-10-17T05:30:39;96559.81;;;17.73;57.45
27425;BME280;15244;49.088;11.886;2022-10-17T05:35:42;96551.16;;;17.71;57.18
27425;BME280;15244;49.088;11.886;2022-10-17T05:40:44;96563.00;;;17.68;57.08
27425;BME280;15244;49.088;11.886;2022-10-17T05:45:46;96560.66;;;17.67;57.30
27425;BME280;15244;49.088;11.886;2022-10-17T05:51:06;96573.28;;;17.64;57.08
27425;BME280;15244;49.088;11.886;2022-10-17T05:56:11;96580.44;;;17.58;57.17
27425;BME280;15244;49.088;11.886;2022-10-17T06:01:16;96582.44;;;17.54;57.11
27425;BME280;15244;49.088;11.886;2022-10-17T06:06:18;96593.50;;;17.50;57.19
27425;BME280;15244;49.088;11.886;2022-10-17T06:11:21;96596.66;;;17.49;57.09
27425;BME280;15244;49.088;11.886;2022-10-17T06:16:24;96595.50;;;17.46;57.15
27425;BME280;15244;49.088;11.886;2022-10-17T06:21:26;96603.78;;;17.46;57.23
27425;BME280;15244;49.088;11.886;2022-10-17T06:26:38;96601.03;;;17.46;57.15
27425;BME280;15244;49.088;11.886;2022-10-17T06:31:41;96604.16;;;17.48;57.30
27425;BME280;15244;49.088;11.886;2022-10-17T06:36:44;96603.75;;;17.50;57.42
27425;BME280;15244;49.088;11.886;2022-10-17T06:41:46;96609.63;;;17.52;57.54
27425;BME280;15244;49.088;11.886;2022-10-17T06:46:52;96604.88;;;17.56;57.50
27425;BME280;15244;49.088;11.886;2022-10-17T06:51:55;96614.25;;;17.62;57.73
27425;BME280;15244;49.088;11.886;2022-10-17T06:57:05;96616.19;;;17.69;58.04
27425;BME280;15244;49.088;11.886;2022-10-17T07:02:30;96621.63;;;17.76;58.37
27425;BME280;15244;49.088;11.886;2022-10-17T07:07:35;96626.69;;;17.85;58.52
27425;BME280;15244;49.088;11.886;2022-10-17T07:12:43;96622.69;;;17.93;58.67
27425;BME280;15244;49.088;11.886;2022-10-17T07:17:49;96634.38;;;18.04;58.76
27425;BME280;15244;49.088;11.886;2022-10-17T07:22:52;96647.72;;;18.13;58.60
27425;BME280;15244;49.088;11.886;2022-10-17T07:27:54;96651.53;;;18.23;58.88
27425;BME280;15244;49.088;11.886;2022-10-17T07:32:56;96651.81;;;18.32;59.01
27425;BME280;15244;49.088;11.886;2022-10-17T07:37:58;96661.59;;;18.40;58.89
27425;BME280;15244;49.088;11.886;2022-10-17T07:43:00;96665.81;;;18.48;58.68
27425;BME280;15244;49.088;11.886;2022-10-17T07:48:03;96659.44;;;18.55;58.76
27425;BME280;15244;49.088;11.886;2022-10-17T07:53:05;96668.78;;;18.65;58.56
27425;BME280;15244;49.088;11.886;2022-10-17T07:58:08;96666.72;;;18.72;58.45
27425;BME280;15244;49.088;11.886;2022-10-17T08:03:10;96669.44;;;18.79;58.29
27425;BME280;15244;49.088;11.886;2022-10-17T08:08:12;96665.78;;;18.86;58.20
27425;BME280;15244;49.088;11.886;2022-10-17T08:13:13;96671.22;;;18.93;57.96
27425;BME280;15244;49.088;11.886;2022-10-17T08:18:15;96670.38;;;18.96;57.62
27425;BME280;15244;49.088;11.886;2022-10-17T08:23:18;96672.72;;;18.98;57.55
27425;BME280;15244;49.088;11.886;2022-10-17T08:28:19;96667.16;;;19.01;57.65
27425;BME280;15244;49.088;11.886;2022-10-17T08:33:21;96668.72;;;19.02;57.80
27425;BME280;15244;49.088;11.886;2022-10-17T08:38:23;96671.44;;;19.06;57.62
27425;BME280;15244;49.088;11.886;2022-10-17T08:49:32;96672.53;;;19.12;57.70
27425;BME280;15244;49.088;11.886;2022-10-17T08:54:40;96677.59;;;19.17;57.58
27425;BME280;15244;49.088;11.886;2022-10-17T08:59:44;96673.59;;;19.22;57.49
27425;BME280;15244;49.088;11.886;2022-10-17T09:10:16;96671.75;;;19.39;57.39
27425;BME280;15244;49.088;11.886;2022-10-17T09:20:55;96670.28;;;19.58;57.38
27425;BME280;15244;49.088;11.886;2022-10-17T09:26:00;96680.34;;;19.72;57.48
27425;BME280;15244;49.088;11.886;2022-10-17T09:36:09;96683.91;;;19.96;56.97
27425;BME280;15244;49.088;11.886;2022-10-17T09:47:24;96693.94;;;20.09;56.63
27425;BME280;15244;49.088;11.886;2022-10-17T09:52:39;96692.66;;;20.14;56.63
27425;BME280;15244;49.088;11.886;2022-10-17T09:57:55;96697.72;;;20.19;56.37
27425;BME280;15244;49.088;11.886;2022-10-17T10:03:21;96698.84;;;20.22;56.62
27425;BME280;15244;49.088;11.886;2022-10-17T10:08:26;96687.28;;;20.27;56.29
27425;BME280;15244;49.088;11.886;2022-10-17T10:13:30;96693.88;;;20.33;56.27
27425;BME280;15244;49.088;11.886;2022-10-17T10:18:34;96695.03;;;20.35;56.25
27425;BME280;15244;49.088;11.886;2022-10-17T10:23:38;96699.25;;;20.44;56.39
27425;BME280;15244;49.088;11.886;2022-10-17T10:28:50;96695.50;;;20.54;56.24
27425;BME280;15244;49.088;11.886;2022-10-17T10:33:53;96694.44;;;20.68;56.42
27425;BME280;15244;49.088;11.886;2022-10-17T10:38:58;96693.81;;;20.80;56.06
27425;BME280;15244;49.088;11.886;2022-10-17T10:44:05;96684.06;;;20.92;55.85
27425;BME280;15244;49.088;11.886;2022-10-17T10:49:28;96681.41;;;21.05;56.06
27425;BME280;15244;49.088;11.886;2022-10-17T10:54:36;96679.88;;;21.20;55.33
27425;BME280;15244;49.088;11.886;2022-10-17T11:05:15;96685.41;;;21.40;55.07
27425;BME280;15244;49.088;11.886;2022-10-17T11:10:42;96683.59;;;21.50;54.60
27425;BME280;15244;49.088;11.886;2022-10-17T11:15:55;96677.09;;;21.56;54.46
27425;BME280;15244;49.088;11.886;2022-10-17T11:21:14;96677.00;;;21.60;54.32
27425;BME280;15244;49.088;11.886;2022-10-17T11:26:24;96667.28;;;21.68;54.25
27425;BME280;15244;49.088;11.886;2022-10-17T11:31:35;96665.91;;;21.76;54.19
27425;BME280;15244;49.088;11.886;2022-10-17T11:36:42;96669.63;;;21.86;54.19
27425;BME280;15244;49.088;11.886;2022-10-17T11:46:59;96668.97;;;22.11;54.25
27425;BME280;15244;49.088;11.886;2022-10-17T11:52:18;96665.19;;;22.21;53.89
27425;BME280;15244;49.088;11.886;2022-10-17T12:08:54;96647.38;;;22.48;53.31
27425;BME280;15244;49.088;11.886;2022-10-17T12:14:01;96653.84;;;22.58;53.29
27425;BME280;15244;49.088;11.886;2022-10-17T12:24:28;96637.44;;;22.76;52.70
27425;BME280;15244;49.088;11.886;2022-10-17T12:29:32;96637.91;;;22.87;52.42
27425;BME280;15244;49.088;11.886;2022-10-17T12:34:34;96631.38;;;22.94;51.93
27425;BME280;15244;49.088;11.886;2022-10-17T12:44:38;96627.25;;;22.99;51.62
27425;BME280;15244;49.088;11.886;2022-10-17T12:49:45;96631.16;;;23.01;51.25
27425;BME280;15244;49.088;11.886;2022-10-17T13:05:27;96626.06;;;23.12;51.27
27425;BME280;15244;49.088;11.886;2022-10-17T13:10:37;96631.16;;;23.14;50.71
27425;BME280;15244;49.088;11.886;2022-10-17T13:15:45;96633.63;;;23.12;51.03
27425;BME280;15244;49.088;11.886;2022-10-17T13:20:59;96640.06;;;23.09;50.62
27425;BME280;15244;49.088;11.886;2022-10-17T13:26:23;96644.84;;;23.08;50.70
27425;BME280;15244;49.088;11.886;2022-10-17T13:31:27;96647.06;;;23.13;50.61
27425;BME280;15244;49.088;11.886;2022-10-17T13:36:31;96643.31;;;23.20;50.68
27425;BME280;15244;49.088;11.886;2022-10-17T13:41:34;96641.84;;;23.28;50.46
27425;BME280;15244;49.088;11.886;2022-10-17T13:46:38;96644.28;;;23.39;50.46
27425;BME280;15244;49.088;11.886;2022-10-17T13:51:46;96644.84;;;23.47;50.51
27425;BME280;15244;49.088;11.886;2022-10-17T13:56:54;96638.94;;;23.57;50.34
27425;BME280;15244;49.088;11.886;2022-10-17T14:01:57;96638.69;;;23.65;49.76
27425;BME280;15244;49.088;11.886;2022-10-17T14:07:01;96648.16;;;23.67;49.90
27425;BME280;15244;49.088;11.886;2022-10-17T14:12:10;96647.94;;;23.74;49.73
27425;BME280;15244;49.088;11.886;2022-10-17T14:17:24;96649.97;;;23.74;49.10
27425;BME280;15244;49.088;11.886;2022-10-17T14:22:27;96647.84;;;23.78;48.99
27425;BME280;15244;49.088;11.886;2022-10-17T14:27:37;96655.84;;;23.89;49.33
27425;BME280;15244;49.088;11.886;2022-10-17T14:32:42;96645.56;;;23.98;48.81
27425;BME280;15244;49.088;11.886;2022-10-17T14:37:46;96648.41;;;24.08;48.67
27425;BME280;15244;49.088;11.886;2022-10-17T14:42:54;96654.06;;;24.17;48.83
27425;BME280;15244;49.088;11.886;2022-10-17T14:48:27;96653.06;;;24.23;48.58
27425;BME280;15244;49.088;11.886;2022-10-17T14:53:29;96649.56;;;24.32;48.49
27425;BME280;15244;49.088;11.886;2022-10-17T14:58:32;96660.00;;;24.41;48.54
27425;BME280;15244;49.088;11.886;2022-10-17T15:03:35;96677.72;;;24.47;48.46
27425;BME280;15244;49.088;11.886;2022-10-17T15:08:36;96676.81;;;24.50;48.14
27425;BME280;15244;49.088;11.886;2022-10-17T15:13:39;96686.63;;;24.55;48.12
27425;BME280;15244;49.088;11.886;2022-10-17T15:18:46;96670.66;;;24.55;48.29
27425;BME280;15244;49.088;11.886;2022-10-17T15:23:48;96673.44;;;24.55;48.22
27425;BME280;15244;49.088;11.886;2022-10-17T15:28:51;96693.44;;;24.54;48.05
27425;BME280;15244;49.088;11.886;2022-10-17T15:33:53;96700.69;;;24.51;48.16
27425;BME280;15244;49.088;11.886;2022-10-17T15:38:58;96703.16;;;24.49;48.27
27425;BME280;15244;49.088;11.886;2022-10-17T15:44:01;96702.94;;;24.43;48.07
27425;BME280;15244;49.088;11.886;2022-10-17T15:49:05;96697.94;;;24.38;47.87
27425;BME280;15244;49.088;11.886;2022-10-17T15:54:10;96698.94;;;24.32;47.73
27425;BME280;15244;49.088;11.886;2022-10-17T15:59:19;96696.41;;;24.25;47.87
27425;BME280;15244;49.088;11.886;2022-10-17T16:04:22;96694.75;;;24.14;48.01
27425;BME280;15244;49.088;11.886;2022-10-17T16:09:27;96693.56;;;24.02;47.56
27425;BME280;15244;49.088;11.886;2022-10-17T16:14:31;96713.97;;;23.87;47.59
27425;BME280;15244;49.088;11.886;2022-10-17T16:19:34;96718.53;;;23.68;47.74
27425;BME280;15244;49.088;11.886;2022-10-17T16:24:36;96723.00;;;23.52;48.00
27425;BME280;15244;49.088;11.886;2022-10-17T16:29:37;96723.09;;;23.36;48.18
27425;BME280;15244;49.088;11.886;2022-10-17T16:34:39;96718.75;;;23.22;48.46
27425;BME280;15244;49.088;11.886;2022-10-17T16:39:41;96724.72;;;23.08;48.38
27425;BME280;15244;49.088;11.886;2022-10-17T16:44:43;96728.22;;;22.96;48.50
27425;BME280;15244;49.088;11.886;2022-10-17T16:49:45;96719.06;;;22.82;48.55
27425;BME280;15244;49.088;11.886;2022-10-17T16:54:47;96724.16;;;22.71;48.92
27425;BME280;15244;49.088;11.886;2022-10-17T16:59:48;96724.44;;;22.60;48.91
27425;BME280;15244;49.088;11.886;2022-10-17T17:04:50;96733.84;;;22.50;48.68
27425;BME280;15244;49.088;11.886;2022-10-17T17:09:52;96728.59;;;22.39;48.86
27425;BME280;15244;49.088;11.886;2022-10-17T17:14:55;96727.66;;;22.29;48.61
27425;BME280;15244;49.088;11.886;2022-10-17T17:19:57;96736.22;;;22.19;48.74
27425;BME280;15244;49.088;11.886;2022-10-17T17:24:59;96737.28;;;22.08;48.90
27425;BME280;15244;49.088;11.886;2022-10-17T17:30:02;96730.78;;;21.99;48.89
27425;BME280;15244;49.088;11.886;2022-10-17T17:35:03;96733.38;;;21.90;49.11
27425;BME280;15244;49.088;11.886;2022-10-17T17:40:07;96741.88;;;21.82;49.29
27425;BME280;15244;49.088;11.886;2022-10-17T17:45:09;96738.06;;;21.76;49.67
27425;BME280;15244;49.088;11.886;2022-10-17T17:50:11;96743.78;;;21.69;49.62
27425;BME280;15244;49.088;11.886;2022-10-17T17:55:13;96752.25;;;21.62;49.78
27425;BME280;15244;49.088;11.886;2022-10-17T18:00:14;96742.47;;;21.57;49.56
27425;BME280;15244;49.088;11.886;2022-10-17T18:05:17;96751.75;;;21.51;50.19
27425;BME280;15244;49.088;11.886;2022-10-17T18:10:19;96756.25;;;21.45;50.26
27425;BME280;15244;49.088;11.886;2022-10-17T18:15:20;96751.19;;;21.39;50.44
27425;BME280;15244;49.088;11.886;2022-10-17T18:20:22;96767.53;;;21.34;50.51
27425;BME280;15244;49.088;11.886;2022-10-17T18:25:24;96767.25;;;21.28;50.22
27425;BME280;15244;49.088;11.886;2022-10-17T18:30:25;96759.09;;;21.21;50.83
27425;BME280;15244;49.088;11.886;2022-10-17T18:35:33;96764.72;;;21.17;50.85
27425;BME280;15244;49.088;11.886;2022-10-17T18:40:36;96761.66;;;21.12;50.81
27425;BME280;15244;49.088;11.886;2022-10-17T18:45:39;96769.28;;;21.08;51.23
27425;BME280;15244;49.088;11.886;2022-10-17T18:50:41;96765.44;;;21.02;51.52
27425;BME280;15244;49.088;11.886;2022-10-17T18:55:43;96779.81;;;20.96;51.62
27425;BME280;15244;49.088;11.886;2022-10-17T19:00:50;96768.41;;;20.91;51.57
27425;BME280;15244;49.088;11.886;2022-10-17T19:05:52;96778.44;;;20.85;51.61
27425;BME280;15244;49.088;11.886;2022-10-17T19:11:07;96778.94;;;20.80;51.39
27425;BME280;15244;49.088;11.886;2022-10-17T19:16:14;96777.44;;;20.75;51.83
27425;BME280;15244;49.088;11.886;2022-10-17T19:21:16;96775.16;;;20.70;51.75
27425;BME280;15244;49.088;11.886;2022-10-17T19:26:23;96793.06;;;20.65;51.88
27425;BME280;15244;49.088;11.886;2022-10-17T19:31:27;96800.31;;;20.59;51.90
27425;BME280;15244;49.088;11.886;2022-10-17T19:36:31;96796.41;;;20.53;51.73
27425;BME280;15244;49.088;11.886;2022-10-17T19:41:34;96796.91;;;20.48;52.19
27425;BME280;15244;49.088;11.886;2022-10-17T19:46:37;96805.31;;;20.41;52.17
27425;BME280;15244;49.088;11.886;2022-10-17T19:51:39;96803.88;;;20.32;52.18
27425;BME280;15244;49.088;11.886;2022-10-17T19:56:42;96807.91;;;20.28;52.14
27425;BME280;15244;49.088;11.886;2022-10-17T20:01:44;96804.06;;;20.22;52.25
27425;BME280;15244;49.088;11.886;2022-10-17T20:06:46;96807.31;;;20.17;52.35
27425;BME280;15244;49.088;11.886;2022-10-17T20:11:48;96801.03;;;20.12;52.42
27425;BME280;15244;49.088;11.886;2022-10-17T20:16:50;96796.44;;;20.06;52.29
27425;BME280;15244;49.088;11.886;2022-10-17T20:21:52;96817.47;;;20.00;52.43
27425;BME280;15244;49.088;11.886;2022-10-17T20:26:54;96810.00;;;19.97;52.78
27425;BME280;15244;49.088;11.886;2022-10-17T20:31:56;96810.47;;;19.91;52.61
27425;BME280;15244;49.088;11.886;2022-10-17T20:36:58;96813.31;;;19.88;52.97
27425;BME280;15244;49.088;11.886;2022-10-17T20:42:01;96818.88;;;19.84;53.00
27425;BME280;15244;49.088;11.886;2022-10-17T20:47:03;96818.94;;;19.81;52.99
27425;BME280;15244;49.088;11.886;2022-10-17T20:52:16;96812.25;;;19.78;53.31
27425;BME280;15244;49.088;11.886;2022-10-17T20:57:18;96804.00;;;19.75;53.10
27425;BME280;15244;49.088;11.886;2022-10-17T21:02:20;96817.97;;;19.67;53.03
27425;BME280;15244;49.088;11.886;2022-10-17T21:07:21;96812.06;;;19.62;53.56
27425;BME280;15244;49.088;11.886;2022-10-17T21:12:25;96814.47;;;19.60;54.05
27425;BME280;15244;49.088;11.886;2022-10-17T21:17:43;96818.88;;;19.57;53.92
27425;BME280;15244;49.088;11.886;2022-10-17T21:22:45;96819.28;;;19.56;54.10
27425;BME280;15244;49.088;11.886;2022-10-17T21:27:46;96817.72;;;19.55;54.36
27425;BME280;15244;49.088;11.886;2022-10-17T21:32:52;96824.06;;;19.52;54.20
27425;BME280;15244;49.088;11.886;2022-10-17T21:37:54;96824.94;;;19.45;53.57
27425;BME280;15244;49.088;11.886;2022-10-17T21:42:56;96832.91;;;19.39;53.68
27425;BME280;15244;49.088;11.886;2022-10-17T21:47:58;96836.56;;;19.33;53.49
27425;BME280;15244;49.088;11.886;2022-10-17T21:53:19;96832.66;;;19.26;53.57
27425;BME280;15244;49.088;11.886;2022-10-17T21:58:21;96831.56;;;19.20;53.32
27425;BME280;15244;49.088;11.886;2022-10-17T22:03:23;96829.25;;;19.15;53.47
27425;BME280;15244;49.088;11.886;2022-10-17T22:08:25;96827.72;;;19.11;53.56
27425;BME280;15244;49.088;11.886;2022-10-17T22:13:26;96826.56;;;19.08;53.79
27425;BME280;15244;49.088;11.886;2022-10-17T22:18:28;96821.88;;;19.05;53.74
27425;BME280;15244;49.088;11.886;2022-10-17T22:23:30;96814.41;;;19.02;53.92
27425;BME280;15244;49.088;11.886;2022-10-17T22:28:33;96816.38;;;19.01;54.32
27425;BME280;15244;49.088;11.886;2022-10-17T22:33:36;96821.56;;;18.99;54.04
27425;BME280;15244;49.088;11.886;2022-10-17T22:38:38;96818.81;;;18.96;54.23
27425;BME280;15244;49.088;11.886;2022-10-17T22:43:40;96812.13;;;18.93;54.39
27425;BME280;15244;49.088;11.886;2022-10-17T22:48:42;96811.75;;;18.91;54.34
27425;BME280;15244;49.088;11.886;2022-10-17T22:53:44;96808.66;;;18.89;54.52
27425;BME280;15244;49.088;11.886;2022-10-17T22:58:46;96807.50;;;18.87;54.42
27425;BME280;15244;49.088;11.886;2022-10-17T23:03:48;96798.81;;;18.84;54.53
27425;BME280;15244;49.088;11.886;2022-10-17T23:08:50;96790.16;;;18.82;54.65
27425;BME280;15244;49.088;11.886;2022-10-17T23:13:52;96792.53;;;18.80;54.83
27425;BME280;15244;49.088;11.886;2022-10-17T23:18:54;96794.94;;;18.78;54.91
27425;BME280;15244;49.088;11.886;2022-10-17T23:23:55;96778.78;;;18.77;54.94
27425;BME280;15244;49.088;11.886;2022-10-17T23:28:57;96780.34;;;18.74;54.91
27425;BME280;15244;49.088;11.886;2022-10-17T23:33:59;96781.97;;;18.72;55.10
27425;BME280;15244;49.088;11.886;2022-10-17T23:39:01;96782.38;;;18.70;55.32
27425;BME280;15244;49.088;11.886;2022-10-17T23:44:02;96776.06;;;18.70;55.26
27425;BME280;15244;49.088;11.886;2022-10-17T23:49:05;96784.75;;;18.68;55.18
27425;BME280;15244;49.088;11.886;2022-10-17T23:54:06;96780.84;;;18.66;55.30
27425;BME280;15244;49.088;11.886;2022-10-17T23:59:08;96781.25;;;18.64;55.46
